createdAt,value
2022-12-04T00:00:01.260Z,96799.94
2022-12-04T00:02:29.962Z,96796.66
2022-12-04T00:04:56.811Z,96799.08
2022-12-04T00:07:23.664Z,96799.40
2022-12-04T00:09:50.351Z,96799.57
2022-12-04T00:12:17.229Z,96801.60
2022-12-04T00:15:23.005Z,96798.88
2022-12-04T00:17:30.468Z,96802.60
2022-12-04T00:19:57.340Z,96794.14
2022-12-04T00:22:24.148Z,96793.77
2022-12-04T00:24:50.953Z,96792.91
2022-12-04T00:27:17.872Z,96788.98
2022-12-04T00:29:44.551Z,96785.17
2022-12-04T00:32:11.289Z,96785.65
2022-12-04T00:34:38.154Z,96781.88
2022-12-04T00:37:04.985Z,96775.70
2022-12-04T00:39:31.683Z,96779.83
2022-12-04T00:41:58.427Z,96782.39
2022-12-04T00:44:25.074Z,96776.74
2022-12-04T00:46:51.796Z,96776.04
2022-12-04T00:49:18.682Z,96779.60
2022-12-04T00:51:45.476Z,96779.23
2022-12-04T00:54:12.200Z,96784.84
2022-12-04T00:56:38.921Z,96786.35
2022-12-04T00:59:05.768Z,96786.48
2022-12-04T01:01:33.066Z,96784.05
2022-12-04T01:04:00.121Z,96784.19
2022-12-04T01:06:30.556Z,96777.66
2022-12-04T01:08:59.155Z,96771.18
2022-12-04T01:11:27.693Z,96767.25
2022-12-04T01:13:55.300Z,96770.65
2022-12-04T01:16:34.088Z,96767.26
2022-12-04T01:19:05.007Z,96766.86
2022-12-04T01:21:31.835Z,96766.52
2022-12-04T01:23:59.641Z,96761.56
2022-12-04T01:26:27.402Z,96767.13
2022-12-04T01:28:54.148Z,96765.10
2022-12-04T01:31:21.353Z,96763.55
2022-12-04T01:33:49.863Z,96757.42
2022-12-04T01:36:21.792Z,96752.48
2022-12-04T01:38:48.819Z,96744.78
2022-12-04T01:41:18.518Z,96736.45
2022-12-04T01:43:45.480Z,96734.22
2022-12-04T01:46:12.386Z,96729.30
2022-12-04T01:48:45.877Z,96736.30
2022-12-04T01:51:28.875Z,96738.47
2022-12-04T01:54:00.813Z,96741.89
2022-12-04T01:56:41.010Z,96744.44
2022-12-04T01:59:09.975Z,96741.70
2022-12-04T02:01:44.704Z,96743.39
2022-12-04T02:04:12.133Z,96738.92
2022-12-04T02:06:38.956Z,96741.83
2022-12-04T02:09:06.618Z,96737.90
2022-12-04T02:12:12.469Z,96743.52
2022-12-04T02:14:53.708Z,96740.80
2022-12-04T02:17:28.218Z,96746.58
2022-12-04T02:20:32.066Z,96746.93
2022-12-04T02:23:25.071Z,96748.79
2022-12-04T02:26:37.702Z,96747.25
2022-12-04T02:29:15.911Z,96753.60
2022-12-04T02:31:52.779Z,96756.48
2022-12-04T02:34:30.442Z,96756.63
2022-12-04T02:37:06.181Z,96750.31
2022-12-04T02:39:40.201Z,96746.91
2022-12-04T02:42:16.261Z,96745.57
2022-12-04T02:44:55.571Z,96741.97
2022-12-04T02:47:24.898Z,96740.64
2022-12-04T02:49:58.811Z,96743.02
2022-12-04T02:52:34.607Z,96739.30
2022-12-04T02:55:10.653Z,96744.73
2022-12-04T02:57:40.256Z,96741.54
2022-12-04T03:00:08.956Z,96735.63
2022-12-04T03:02:57.819Z,96740.92
2022-12-04T03:05:48.986Z,96744.73
2022-12-04T03:08:21.754Z,96750.02
2022-12-04T03:10:52.835Z,96751.56
2022-12-04T03:13:30.255Z,96755.31
2022-12-04T03:16:06.549Z,96757.72
2022-12-04T03:18:53.303Z,96760.42
2022-12-04T03:21:22.187Z,96755.85
2022-12-04T03:23:56.547Z,96758.98
2022-12-04T03:26:39.585Z,96759.00
2022-12-04T03:29:30.573Z,96756.93
2022-12-04T03:32:06.282Z,96756.11
2022-12-04T03:34:48.321Z,96750.52
2022-12-04T03:37:21.672Z,96750.03
2022-12-04T03:40:01.803Z,96749.86
2022-12-04T03:42:40.561Z,96751.40
2022-12-04T03:45:30.362Z,96753.98
2022-12-04T03:48:30.984Z,96754.80
2022-12-04T03:51:03.017Z,96752.45
2022-12-04T03:53:39.059Z,96750.91
2022-12-04T03:56:10.785Z,96749.39
2022-12-04T03:58:40.906Z,96748.36
2022-12-04T04:01:11.272Z,96744.60
2022-12-04T04:03:45.976Z,96741.36
2022-12-04T04:06:18.798Z,96741.38
2022-12-04T04:08:51.625Z,96744.26
2022-12-04T04:11:24.738Z,96743.58
2022-12-04T04:14:15.323Z,96749.70
2022-12-04T04:17:06.510Z,96748.17
2022-12-04T04:19:57.549Z,96751.27
2022-12-04T04:22:44.803Z,96749.38
2022-12-04T04:25:15.667Z,96748.20
2022-12-04T04:27:42.483Z,96746.01
2022-12-04T04:30:10.562Z,96746.34
2022-12-04T04:32:57.684Z,96747.54
2022-12-04T04:35:33.412Z,96747.87
2022-12-04T04:38:24.724Z,96745.48
2022-12-04T04:41:10.720Z,96738.86
2022-12-04T04:43:51.431Z,96737.84
2022-12-04T04:46:28.315Z,96736.14
2022-12-04T04:49:00.123Z,96737.34
2022-12-04T04:51:30.380Z,96738.17
2022-12-04T04:54:00.129Z,96739.75
2022-12-04T04:56:27.848Z,96739.40
2022-12-04T04:58:54.608Z,96739.77
2022-12-04T05:01:26.181Z,96732.96
2022-12-04T05:03:53.106Z,96729.22
2022-12-04T05:06:19.971Z,96728.87
2022-12-04T05:08:48.586Z,96722.25
2022-12-04T05:11:16.536Z,96725.30
2022-12-04T05:13:43.435Z,96728.88
2022-12-04T05:16:12.833Z,96731.98
2022-12-04T05:18:40.554Z,96729.67
2022-12-04T05:21:16.300Z,96725.98
2022-12-04T05:23:43.387Z,96732.17
2022-12-04T05:26:10.805Z,96727.97
2022-12-04T05:28:38.968Z,96727.48
2022-12-04T05:31:05.927Z,96735.85
2022-12-04T05:33:32.713Z,96740.80
2022-12-04T05:36:01.632Z,96743.86
2022-12-04T05:38:29.170Z,96738.23
2022-12-04T05:40:58.750Z,96736.05
2022-12-04T05:43:25.895Z,96733.86
2022-12-04T05:45:52.611Z,96731.98
2022-12-04T05:48:19.500Z,96737.79
2022-12-04T05:50:46.326Z,96736.09
2022-12-04T05:53:13.418Z,96745.60
2022-12-04T05:55:40.074Z,96754.65
2022-12-04T05:58:06.728Z,96754.16
2022-12-04T06:00:33.474Z,96758.22
2022-12-04T06:03:00.166Z,96754.83
2022-12-04T06:05:26.907Z,96756.54
2022-12-04T06:07:53.724Z,96755.32
2022-12-04T06:10:21.025Z,96756.70
2022-12-04T06:12:47.721Z,96752.10
2022-12-04T06:15:14.544Z,96752.09
2022-12-04T06:17:41.221Z,96760.26
2022-12-04T06:20:11.743Z,96757.38
2022-12-04T06:22:38.966Z,96761.29
2022-12-04T06:25:06.678Z,96760.44
2022-12-04T06:27:35.158Z,96758.05
2022-12-04T06:30:02.194Z,96757.86
2022-12-04T06:32:28.959Z,96755.15
2022-12-04T06:34:55.760Z,96759.58
2022-12-04T06:37:24.294Z,96759.23
2022-12-04T06:39:51.053Z,96753.81
2022-12-04T06:42:17.861Z,96755.65
2022-12-04T06:44:44.864Z,96754.45
2022-12-04T06:47:11.663Z,96752.95
2022-12-04T06:49:38.404Z,96752.26
2022-12-04T06:52:05.104Z,96755.02
2022-12-04T06:54:31.794Z,96758.44
2022-12-04T06:56:58.969Z,96756.72
2022-12-04T06:59:25.891Z,96750.35
2022-12-04T07:01:52.651Z,96744.91
2022-12-04T07:04:20.037Z,96744.02
2022-12-04T07:06:46.675Z,96743.02
2022-12-04T07:09:16.484Z,96742.00
2022-12-04T07:11:44.594Z,96743.50
2022-12-04T07:14:12.730Z,96748.76
2022-12-04T07:16:41.897Z,96745.16
2022-12-04T07:19:11.763Z,96742.94
2022-12-04T07:21:38.689Z,96743.27
2022-12-04T07:24:05.822Z,96737.45
2022-12-04T07:26:32.509Z,96739.25
2022-12-04T07:28:59.572Z,96739.86
2022-12-04T07:31:28.211Z,96738.11
2022-12-04T07:33:55.414Z,96737.38
2022-12-04T07:36:24.155Z,96746.67
2022-12-04T07:38:51.791Z,96749.05
2022-12-04T07:41:19.025Z,96752.57
2022-12-04T07:43:45.851Z,96752.63
2022-12-04T07:46:16.234Z,96745.24
2022-12-04T07:48:44.143Z,96737.33
2022-12-04T07:51:16.403Z,96735.70
2022-12-04T07:53:43.951Z,96734.27
2022-12-04T07:56:11.853Z,96730.10
2022-12-04T07:58:41.225Z,96728.16
2022-12-04T08:01:12.570Z,96723.53
2022-12-04T08:03:47.184Z,96732.70
2022-12-04T08:06:19.265Z,96732.11
2022-12-04T08:08:47.763Z,96725.71
2022-12-04T08:11:17.039Z,96723.95
2022-12-04T08:13:44.608Z,96730.04
2022-12-04T08:16:12.183Z,96732.59
2022-12-04T08:18:40.756Z,96733.23
2022-12-04T08:21:13.406Z,96736.27
2022-12-04T08:23:41.914Z,96735.15
2022-12-04T08:26:09.978Z,96732.52
2022-12-04T08:28:37.582Z,96737.42
2022-12-04T08:31:12.104Z,96742.48
2022-12-04T08:33:40.263Z,96745.78
2022-12-04T08:36:09.471Z,96746.73
2022-12-04T08:38:37.150Z,96749.89
2022-12-04T08:41:06.446Z,96749.65
2022-12-04T08:43:34.030Z,96751.58
2022-12-04T08:46:03.885Z,96747.91
2022-12-04T08:48:32.219Z,96744.41
2022-12-04T08:50:59.173Z,96745.55
2022-12-04T08:53:26.615Z,96740.75
2022-12-04T08:55:53.288Z,96743.67
2022-12-04T08:58:20.071Z,96742.56
2022-12-04T09:00:47.681Z,96747.61
2022-12-04T09:03:16.891Z,96750.73
2022-12-04T09:05:48.063Z,96753.80
2022-12-04T09:08:16.356Z,96762.84
2022-12-04T09:10:44.132Z,96761.27
2022-12-04T09:13:11.171Z,96761.21
2022-12-04T09:15:39.821Z,96759.29
2022-12-04T09:18:07.576Z,96755.38
2022-12-04T09:20:34.800Z,96750.05
2022-12-04T09:23:04.736Z,96741.48
2022-12-04T09:25:37.220Z,96742.14
2022-12-04T09:28:04.459Z,96743.73
2022-12-04T09:30:31.288Z,96744.90
2022-12-04T09:32:58.160Z,96749.98
2022-12-04T09:35:25.200Z,96752.84
2022-12-04T09:37:52.321Z,96750.02
2022-12-04T09:40:33.435Z,96749.02
2022-12-04T09:43:12.486Z,96740.73
2022-12-04T09:45:47.874Z,96743.11
2022-12-04T09:48:17.701Z,96737.26
2022-12-04T09:50:47.600Z,96736.74
2022-12-04T09:53:28.475Z,96739.09
2022-12-04T09:55:58.146Z,96738.58
2022-12-04T09:58:35.655Z,96725.38
2022-12-04T10:01:04.494Z,96722.29
2022-12-04T10:03:32.102Z,96721.25
2022-12-04T10:06:19.427Z,96708.29
2022-12-04T10:08:52.843Z,96702.56
2022-12-04T10:11:32.864Z,96704.05
2022-12-04T10:14:12.222Z,96705.57
2022-12-04T10:16:51.764Z,96706.88
2022-12-04T10:19:37.329Z,96698.86
2022-12-04T10:22:29.277Z,96698.31
2022-12-04T10:25:02.693Z,96694.34
2022-12-04T10:27:39.253Z,96693.78
2022-12-04T10:30:20.509Z,96689.08
2022-12-04T10:32:55.942Z,96684.75
2022-12-04T10:35:29.061Z,96684.52
2022-12-04T10:38:14.729Z,96682.46
2022-12-04T10:40:54.364Z,96679.76
2022-12-04T10:43:40.218Z,96669.69
2022-12-04T10:46:25.395Z,96667.25
2022-12-04T10:48:59.281Z,96664.06
2022-12-04T10:51:27.140Z,96658.96
2022-12-04T10:53:56.396Z,96660.64
2022-12-04T10:56:25.365Z,96657.59
2022-12-04T10:59:03.221Z,96658.61
2022-12-04T11:01:32.930Z,96655.02
2022-12-04T11:04:07.323Z,96657.58
2022-12-04T11:06:35.420Z,96660.91
2022-12-04T11:09:03.779Z,96663.94
2022-12-04T11:11:34.357Z,96666.02
2022-12-04T11:14:01.403Z,96660.35
2022-12-04T11:16:44.129Z,96660.67
2022-12-04T11:19:21.547Z,96662.70
2022-12-04T11:21:49.263Z,96660.17
2022-12-04T11:24:22.013Z,96661.87
2022-12-04T11:26:50.557Z,96661.82
2022-12-04T11:29:25.519Z,96664.44
2022-12-04T11:31:55.005Z,96664.84
2022-12-04T11:34:32.340Z,96663.23
2022-12-04T11:36:59.929Z,96659.58
2022-12-04T11:39:34.671Z,96661.30
2022-12-04T11:42:05.696Z,96665.21
2022-12-04T11:44:35.900Z,96658.38
2022-12-04T11:47:04.572Z,96654.67
2022-12-04T11:49:32.902Z,96654.58
2022-12-04T11:52:02.861Z,96657.13
2022-12-04T11:54:39.496Z,96659.70
2022-12-04T11:57:23.394Z,96661.44
2022-12-04T11:59:59.427Z,96660.52
2022-12-04T12:03:04.314Z,96661.46
2022-12-04T12:05:46.644Z,96663.02
2022-12-04T12:08:30.103Z,96668.46
2022-12-04T12:11:11.159Z,96670.95
2022-12-04T12:13:58.841Z,96668.55
2022-12-04T12:16:48.341Z,96667.23
2022-12-04T12:19:47.996Z,96668.11
2022-12-04T12:22:14.689Z,96666.25
2022-12-04T12:24:53.844Z,96660.82
2022-12-04T12:27:31.812Z,96661.22
2022-12-04T12:30:21.781Z,96657.31
2022-12-04T12:33:07.862Z,96665.86
2022-12-04T12:35:57.933Z,96669.28
2022-12-04T12:38:47.250Z,96663.77
2022-12-04T12:41:27.237Z,96661.52
2022-12-04T12:44:03.774Z,96657.96
2022-12-04T12:46:36.329Z,96664.28
2022-12-04T12:49:16.708Z,96668.64
2022-12-04T12:52:17.017Z,96658.59
2022-12-04T12:54:58.577Z,96651.37
2022-12-04T12:57:41.711Z,96656.01
2022-12-04T13:00:19.771Z,96654.46
2022-12-04T13:02:53.115Z,96651.02
2022-12-04T13:05:30.464Z,96649.15
2022-12-04T13:08:06.190Z,96647.91
2022-12-04T13:10:41.005Z,96650.93
2022-12-04T13:13:16.836Z,96652.60
2022-12-04T13:15:50.902Z,96651.95
2022-12-04T13:18:27.707Z,96644.96
2022-12-04T13:20:59.101Z,96641.70
2022-12-04T13:24:00.457Z,96637.92
2022-12-04T13:26:49.774Z,96641.67
2022-12-04T13:29:31.791Z,96644.94
2022-12-04T13:32:27.192Z,96648.36
2022-12-04T13:35:24.051Z,96647.35
2022-12-04T13:38:15.505Z,96645.27
2022-12-04T13:40:47.506Z,96649.53
2022-12-04T13:43:15.959Z,96644.91
2022-12-04T13:45:46.821Z,96646.60
2022-12-04T13:48:13.651Z,96644.96
2022-12-04T13:50:40.495Z,96648.67
2022-12-04T13:53:31.910Z,96651.91
2022-12-04T13:56:03.049Z,96649.55
2022-12-04T13:58:35.517Z,96651.23
2022-12-04T14:01:20.739Z,96651.21
2022-12-04T14:03:58.821Z,96651.23
2022-12-04T14:06:34.902Z,96650.20
2022-12-04T14:09:03.911Z,96646.27
2022-12-04T14:11:42.184Z,96646.09
2022-12-04T14:14:38.409Z,96650.66
2022-12-04T14:17:16.500Z,96650.65
2022-12-04T14:19:50.695Z,96648.45
2022-12-04T14:22:29.457Z,96644.67
2022-12-04T14:25:24.108Z,96646.19
2022-12-04T14:27:53.058Z,96647.06
2022-12-04T14:30:34.253Z,96644.11
2022-12-04T14:33:22.037Z,96642.27
2022-12-04T14:35:54.587Z,96647.10
2022-12-04T14:38:22.945Z,96646.23
2022-12-04T14:40:55.539Z,96643.52
2022-12-04T14:43:25.306Z,96644.06
2022-12-04T14:46:03.037Z,96645.16
2022-12-04T14:48:57.964Z,96642.65
2022-12-04T14:51:41.036Z,96641.30
2022-12-04T14:54:40.417Z,96640.87
2022-12-04T14:57:24.220Z,96643.27
2022-12-04T14:59:54.052Z,96646.30
2022-12-04T15:02:39.912Z,96647.20
2022-12-04T15:05:16.043Z,96644.00
2022-12-04T15:07:53.022Z,96646.45
2022-12-04T15:10:45.040Z,96649.91
2022-12-04T15:13:15.987Z,96650.38
2022-12-04T15:15:46.266Z,96654.01
2022-12-04T15:18:15.621Z,96650.27
2022-12-04T15:20:51.763Z,96655.44
2022-12-04T15:23:24.947Z,96654.11
2022-12-04T15:25:55.159Z,96653.47
2022-12-04T15:28:33.485Z,96656.08
2022-12-04T15:31:02.554Z,96654.52
2022-12-04T15:33:35.331Z,96655.45
2022-12-04T15:36:15.265Z,96662.64
2022-12-04T15:38:42.215Z,96664.96
2022-12-04T15:41:34.361Z,96662.06
2022-12-04T15:44:02.385Z,96660.45
2022-12-04T15:46:37.355Z,96653.34
2022-12-04T15:49:31.029Z,96648.33
2022-12-04T15:52:17.324Z,96649.79
2022-12-04T15:54:47.833Z,96649.66
2022-12-04T15:57:19.893Z,96648.33
2022-12-04T15:59:51.255Z,96648.62
2022-12-04T16:02:40.936Z,96650.36
2022-12-04T16:05:19.795Z,96653.67
2022-12-04T16:08:00.769Z,96648.45
2022-12-04T16:10:35.263Z,96643.33
2022-12-04T16:13:04.368Z,96650.54
2022-12-04T16:15:40.949Z,96659.75
2022-12-04T16:18:12.963Z,96666.75
2022-12-04T16:20:40.801Z,96663.99
2022-12-04T16:23:07.440Z,96660.63
2022-12-04T16:25:34.404Z,96659.77
2022-12-04T16:28:01.306Z,96661.88
2022-12-04T16:30:31.532Z,96655.44
2022-12-04T16:32:58.282Z,96650.36
2022-12-04T16:35:25.108Z,96643.92
2022-12-04T16:37:55.911Z,96643.42
2022-12-04T16:40:22.624Z,96646.67
2022-12-04T16:42:49.459Z,96648.64
2022-12-04T16:45:30.839Z,96652.44
2022-12-04T16:47:57.855Z,96657.73
2022-12-04T16:50:26.283Z,96658.79
2022-12-04T16:52:54.566Z,96656.46
2022-12-04T16:55:28.699Z,96660.84
2022-12-04T16:57:55.364Z,96660.83
2022-12-04T17:00:22.136Z,96662.86
2022-12-04T17:02:49.100Z,96661.84
2022-12-04T17:05:23.009Z,96663.23
2022-12-04T17:07:49.880Z,96666.52
2022-12-04T17:10:23.276Z,96672.15
2022-12-04T17:12:54.275Z,96674.36
2022-12-04T17:15:21.646Z,96670.44
2022-12-04T17:17:48.501Z,96672.05
2022-12-04T17:20:17.940Z,96667.50
2022-12-04T17:22:44.625Z,96667.91
2022-12-04T17:25:12.079Z,96672.33
2022-12-04T17:27:39.336Z,96673.10
2022-12-04T17:30:07.862Z,96671.29
2022-12-04T17:32:35.192Z,96670.96
2022-12-04T17:35:04.775Z,96666.88
2022-12-04T17:37:32.851Z,96662.77
2022-12-04T17:39:59.653Z,96660.23
2022-12-04T17:42:27.228Z,96663.02
2022-12-04T17:44:54.343Z,96667.13
2022-12-04T17:47:21.305Z,96665.65
2022-12-04T17:49:48.048Z,96660.77
2022-12-04T17:52:14.798Z,96657.42
2022-12-04T17:54:41.572Z,96658.85
2022-12-04T17:57:08.425Z,96659.23
2022-12-04T17:59:35.196Z,96659.64
2022-12-04T18:02:01.837Z,96655.20
2022-12-04T18:04:28.528Z,96653.86
2022-12-04T18:06:56.035Z,96658.66
2022-12-04T18:09:22.734Z,96661.26
2022-12-04T18:11:49.426Z,96667.77
2022-12-04T18:14:19.533Z,96663.85
2022-12-04T18:16:52.678Z,96663.22
2022-12-04T18:19:21.198Z,96668.18
2022-12-04T18:21:47.933Z,96669.91
2022-12-04T18:24:14.966Z,96667.88
2022-12-04T18:26:47.417Z,96660.38
2022-12-04T18:29:18.020Z,96658.94
2022-12-04T18:31:45.490Z,96657.13
2022-12-04T18:34:13.129Z,96654.59
2022-12-04T18:36:40.742Z,96655.52
2022-12-04T18:39:12.664Z,96656.34
2022-12-04T18:41:39.553Z,96660.14
2022-12-04T18:44:06.404Z,96662.45
2022-12-04T18:46:33.261Z,96661.91
2022-12-04T18:49:00.593Z,96657.02
2022-12-04T18:51:39.437Z,96651.38
2022-12-04T18:54:10.424Z,96651.23
2022-12-04T18:56:38.165Z,96658.71
2022-12-04T18:59:12.444Z,96664.18
2022-12-04T19:01:41.297Z,96665.00
2022-12-04T19:04:10.243Z,96662.80
2022-12-04T19:06:39.641Z,96662.66
2022-12-04T19:09:10.653Z,96666.23
2022-12-04T19:11:38.818Z,96664.24
2022-12-04T19:14:16.133Z,96661.20
2022-12-04T19:16:45.843Z,96657.29
2022-12-04T19:19:14.159Z,96660.33
2022-12-04T19:21:41.213Z,96661.17
2022-12-04T19:24:09.788Z,96661.77
2022-12-04T19:26:37.178Z,96667.73
2022-12-04T19:29:05.048Z,96673.58
2022-12-04T19:31:34.254Z,96674.79
2022-12-04T19:34:02.093Z,96678.89
2022-12-04T19:36:30.785Z,96681.41
2022-12-04T19:38:58.271Z,96683.63
2022-12-04T19:41:29.485Z,96675.95
2022-12-04T19:44:00.155Z,96675.42
2022-12-04T19:46:29.929Z,96679.02
2022-12-04T19:49:00.947Z,96682.16
2022-12-04T19:51:28.323Z,96672.42
2022-12-04T19:53:55.093Z,96675.86
2022-12-04T19:56:24.337Z,96681.99
2022-12-04T19:58:52.621Z,96677.60
2022-12-04T20:01:24.241Z,96678.13
2022-12-04T20:03:51.323Z,96677.63
2022-12-04T20:06:22.192Z,96676.34
2022-12-04T20:08:55.341Z,96675.67
2022-12-04T20:11:23.007Z,96678.44
2022-12-04T20:13:55.098Z,96682.19
2022-12-04T20:16:26.824Z,96681.33
2022-12-04T20:18:54.245Z,96682.05
2022-12-04T20:21:25.648Z,96677.77
2022-12-04T20:23:53.744Z,96681.16
2022-12-04T20:26:23.665Z,96680.69
2022-12-04T20:28:50.787Z,96679.46
2022-12-04T20:31:26.318Z,96677.14
2022-12-04T20:33:54.791Z,96677.14
2022-12-04T20:36:24.896Z,96681.93
2022-12-04T20:38:54.867Z,96687.02
2022-12-04T20:41:22.143Z,96683.80
2022-12-04T20:43:48.866Z,96679.38
2022-12-04T20:46:16.801Z,96676.36
2022-12-04T20:48:47.812Z,96671.12
2022-12-04T20:51:16.998Z,96671.82
2022-12-04T20:53:45.695Z,96672.70
2022-12-04T20:56:13.478Z,96663.35
2022-12-04T20:58:42.930Z,96651.77
2022-12-04T21:01:17.958Z,96651.65
2022-12-04T21:03:45.987Z,96653.20
2022-12-04T21:06:14.082Z,96655.44
2022-12-04T21:08:55.399Z,96651.67
2022-12-04T21:11:33.228Z,96647.05
2022-12-04T21:14:20.223Z,96646.06
2022-12-04T21:16:47.453Z,96640.34
2022-12-04T21:19:16.901Z,96641.36
2022-12-04T21:21:44.161Z,96641.23
2022-12-04T21:24:13.044Z,96640.75
2022-12-04T21:26:44.073Z,96641.58
2022-12-04T21:29:11.074Z,96646.92
2022-12-04T21:31:38.544Z,96654.45
2022-12-04T21:34:07.710Z,96653.14
2022-12-04T21:36:34.528Z,96650.90
2022-12-04T21:39:01.227Z,96648.36
2022-12-04T21:41:46.583Z,96653.46
2022-12-04T21:44:16.467Z,96652.90
2022-12-04T21:46:44.544Z,96653.59
2022-12-04T21:49:13.064Z,96656.90
2022-12-04T21:51:56.921Z,96653.02
2022-12-04T21:54:26.732Z,96654.03
2022-12-04T21:56:54.132Z,96656.71
2022-12-04T21:59:20.956Z,96657.23
2022-12-04T22:01:47.848Z,96660.49
2022-12-04T22:04:15.158Z,96652.88
2022-12-04T22:06:42.526Z,96656.23
2022-12-04T22:09:12.128Z,96653.14
2022-12-04T22:11:42.781Z,96646.66
2022-12-04T22:14:11.038Z,96649.61
2022-12-04T22:16:43.232Z,96650.27
2022-12-04T22:19:11.948Z,96648.02
2022-12-04T22:21:39.323Z,96654.15
2022-12-04T22:24:06.984Z,96652.94
2022-12-04T22:26:33.763Z,96655.09
2022-12-04T22:29:00.660Z,96655.13
2022-12-04T22:31:29.813Z,96652.91
2022-12-04T22:33:59.464Z,96648.98
2022-12-04T22:36:32.075Z,96640.98
2022-12-04T22:39:09.430Z,96647.33
2022-12-04T22:41:37.013Z,96654.33
2022-12-04T22:44:04.518Z,96658.73
2022-12-04T22:46:32.079Z,96658.69
2022-12-04T22:49:00.035Z,96657.48
2022-12-04T22:51:27.853Z,96650.64
2022-12-04T22:53:57.375Z,96648.61
2022-12-04T22:56:27.985Z,96645.69
2022-12-04T22:58:57.139Z,96642.13
2022-12-04T23:01:29.722Z,96642.17
2022-12-04T23:03:56.985Z,96640.31
2022-12-04T23:06:26.766Z,96640.48
2022-12-04T23:08:59.152Z,96639.81
2022-12-04T23:11:27.435Z,96636.11
2022-12-04T23:13:56.637Z,96630.98
2022-12-04T23:16:24.232Z,96631.51
2022-12-04T23:18:52.442Z,96636.46
2022-12-04T23:21:20.712Z,96641.75
2022-12-04T23:23:48.494Z,96629.27
2022-12-04T23:26:21.475Z,96630.13
2022-12-04T23:28:48.300Z,96626.38
2022-12-04T23:31:15.647Z,96625.54
2022-12-04T23:33:42.537Z,96629.43
2022-12-04T23:36:11.334Z,96639.82
2022-12-04T23:38:39.974Z,96640.69
2022-12-04T23:41:15.470Z,96640.39
2022-12-04T23:43:43.251Z,96635.98
2022-12-04T23:46:11.888Z,96629.37
2022-12-04T23:48:40.235Z,96617.83
2022-12-04T23:51:07.980Z,96615.29
2022-12-04T23:53:35.350Z,96611.70
2022-12-04T23:56:07.453Z,96609.87
2022-12-04T23:58:35.056Z,96614.02
